sensor_id;sensor_type;location;lat;lon;timestamp;P1;durP1;ratioP1;P2;durP2;ratioP2
28028;SDS011;15345;59.364;18.016;2023-09-19T00:00:36;10.73;;;5.10;;
28028;SDS011;15345;59.364;18.016;2023-09-19T00:01:55;6.15;;;5.28;;
28028;SDS011;15345;59.364;18.016;2023-09-19T00:03:15;11.70;;;5.28;;
28028;SDS011;15345;59.364;18.016;2023-09-19T00:04:34;9.80;;;5.22;;
28028;SDS011;15345;59.364;18.016;2023-09-19T00:05:54;14.27;;;5.70;;
28028;SDS011;15345;59.364;18.016;2023-09-19T00:07:14;7.15;;;5.00;;
28028;SDS011;15345;59.364;18.016;2023-09-19T00:08:34;7.65;;;5.40;;
28028;SDS011;15345;59.364;18.016;2023-09-19T00:09:53;7.88;;;5.05;;
28028;SDS011;15345;59.364;18.016;2023-09-19T00:11:13;7.63;;;5.22;;
28028;SDS011;15345;59.364;18.016;2023-09-19T00:12:33;12.98;;;5.70;;
28028;SDS011;15345;59.364;18.016;2023-09-19T00:13:52;10.18;;;5.57;;
28028;SDS011;15345;59.364;18.016;2023-09-19T00:15:11;5.70;;;5.22;;
28028;SDS011;15345;59.364;18.016;2023-09-19T00:16:30;8.27;;;5.45;;
28028;SDS011;15345;59.364;18.016;2023-09-19T00:17:48;7.70;;;5.60;;
28028;SDS011;15345;59.364;18.016;2023-09-19T00:19:10;10.02;;;5.85;;
28028;SDS011;15345;59.364;18.016;2023-09-19T00:20:30;7.88;;;5.85;;
28028;SDS011;15345;59.364;18.016;2023-09-19T00:21:49;9.73;;;5.78;;
28028;SDS011;15345;59.364;18.016;2023-09-19T00:23:08;12.63;;;6.25;;
28028;SDS011;15345;59.364;18.016;2023-09-19T00:24:30;8.30;;;5.90;;
28028;SDS011;15345;59.364;18.016;2023-09-19T00:25:50;10.75;;;6.43;;
28028;SDS011;15345;59.364;18.016;2023-09-19T00:27:09;6.88;;;5.70;;
28028;SDS011;15345;59.364;18.016;2023-09-19T00:28:28;9.13;;;5.93;;
28028;SDS011;15345;59.364;18.016;2023-09-19T00:29:48;10.45;;;5.65;;
28028;SDS011;15345;59.364;18.016;2023-09-19T00:31:08;13.30;;;6.30;;
28028;SDS011;15345;59.364;18.016;2023-09-19T00:32:27;10.07;;;6.55;;
28028;SDS011;15345;59.364;18.016;2023-09-19T00:33:50;9.45;;;6.30;;
28028;SDS011;15345;59.364;18.016;2023-09-19T00:35:10;8.63;;;6.65;;
28028;SDS011;15345;59.364;18.016;2023-09-19T00:36:29;7.22;;;6.35;;
28028;SDS011;15345;59.364;18.016;2023-09-19T00:37:48;8.10;;;6.20;;
28028;SDS011;15345;59.364;18.016;2023-09-19T00:39:07;8.65;;;6.78;;
28028;SDS011;15345;59.364;18.016;2023-09-19T00:40:27;9.65;;;6.25;;
28028;SDS011;15345;59.364;18.016;2023-09-19T00:41:46;17.63;;;7.05;;
28028;SDS011;15345;59.364;18.016;2023-09-19T00:43:05;12.98;;;7.40;;
28028;SDS011;15345;59.364;18.016;2023-09-19T00:44:24;11.80;;;7.38;;
28028;SDS011;15345;59.364;18.016;2023-09-19T00:45:44;13.20;;;6.97;;
28028;SDS011;15345;59.364;18.016;2023-09-19T00:47:04;14.48;;;7.10;;
28028;SDS011;15345;59.364;18.016;2023-09-19T00:48:22;9.50;;;7.20;;
28028;SDS011;15345;59.364;18.016;2023-09-19T00:49:44;8.98;;;7.00;;
28028;SDS011;15345;59.364;18.016;2023-09-19T00:51:04;8.80;;;7.32;;
28028;SDS011;15345;59.364;18.016;2023-09-19T00:52:23;12.80;;;7.38;;
28028;SDS011;15345;59.364;18.016;2023-09-19T00:53:43;15.88;;;7.60;;
28028;SDS011;15345;59.364;18.016;2023-09-19T00:55:05;8.88;;;7.15;;
28028;SDS011;15345;59.364;18.016;2023-09-19T00:56:24;13.90;;;7.97;;
28028;SDS011;15345;59.364;18.016;2023-09-19T00:57:43;10.13;;;8.23;;
28028;SDS011;15345;59.364;18.016;2023-09-19T00:59:02;16.25;;;8.25;;
28028;SDS011;15345;59.364;18.016;2023-09-19T01:00:21;10.60;;;7.85;;
28028;SDS011;15345;59.364;18.016;2023-09-19T01:01:41;10.35;;;8.05;;
28028;SDS011;15345;59.364;18.016;2023-09-19T01:03:01;12.15;;;8.63;;
28028;SDS011;15345;59.364;18.016;2023-09-19T01:04:20;14.27;;;8.68;;
28028;SDS011;15345;59.364;18.016;2023-09-19T01:05:39;15.27;;;8.98;;
28028;SDS011;15345;59.364;18.016;2023-09-19T01:06:58;11.93;;;8.48;;
28028;SDS011;15345;59.364;18.016;2023-09-19T01:08:17;15.85;;;8.88;;
28028;SDS011;15345;59.364;18.016;2023-09-19T01:09:36;12.70;;;8.88;;
28028;SDS011;15345;59.364;18.016;2023-09-19T01:11:03;13.98;;;9.00;;
28028;SDS011;15345;59.364;18.016;2023-09-19T01:12:30;19.83;;;9.35;;
28028;SDS011;15345;59.364;18.016;2023-09-19T01:13:56;16.08;;;8.77;;
28028;SDS011;15345;59.364;18.016;2023-09-19T01:18:00;11.27;;;9.05;;
28028;SDS011;15345;59.364;18.016;2023-09-19T01:22:10;13.63;;;9.32;;
28028;SDS011;15345;59.364;18.016;2023-09-19T01:25:03;12.23;;;9.45;;
28028;SDS011;15345;59.364;18.016;2023-09-19T01:28:20;15.88;;;9.50;;
28028;SDS011;15345;59.364;18.016;2023-09-19T01:29:47;10.30;;;8.85;;
28028;SDS011;15345;59.364;18.016;2023-09-19T01:31:09;18.80;;;8.90;;
28028;SDS011;15345;59.364;18.016;2023-09-19T01:32:28;13.82;;;9.52;;
28028;SDS011;15345;59.364;18.016;2023-09-19T01:33:58;12.75;;;9.48;;
28028;SDS011;15345;59.364;18.016;2023-09-19T01:35:18;13.05;;;9.32;;
28028;SDS011;15345;59.364;18.016;2023-09-19T01:36:38;13.38;;;8.88;;
28028;SDS011;15345;59.364;18.016;2023-09-19T01:37:57;12.55;;;8.82;;
28028;SDS011;15345;59.364;18.016;2023-09-19T01:39:18;14.20;;;9.30;;
28028;SDS011;15345;59.364;18.016;2023-09-19T01:40:41;11.55;;;8.80;;
28028;SDS011;15345;59.364;18.016;2023-09-19T01:42:05;13.82;;;8.82;;
28028;SDS011;15345;59.364;18.016;2023-09-19T01:43:33;10.57;;;8.32;;
28028;SDS011;15345;59.364;18.016;2023-09-19T01:44:59;16.92;;;9.43;;
28028;SDS011;15345;59.364;18.016;2023-09-19T01:46:28;11.88;;;9.35;;
28028;SDS011;15345;59.364;18.016;2023-09-19T01:47:52;16.25;;;9.43;;
28028;SDS011;15345;59.364;18.016;2023-09-19T01:50:59;13.93;;;9.02;;
28028;SDS011;15345;59.364;18.016;2023-09-19T01:52:18;11.98;;;8.40;;
28028;SDS011;15345;59.364;18.016;2023-09-19T01:55:02;13.35;;;9.00;;
28028;SDS011;15345;59.364;18.016;2023-09-19T01:56:28;14.65;;;9.18;;
28028;SDS011;15345;59.364;18.016;2023-09-19T01:57:51;15.45;;;9.15;;
28028;SDS011;15345;59.364;18.016;2023-09-19T01:59:13;9.77;;;8.57;;
28028;SDS011;15345;59.364;18.016;2023-09-19T02:00:36;12.25;;;8.90;;
28028;SDS011;15345;59.364;18.016;2023-09-19T02:01:56;16.38;;;9.38;;
28028;SDS011;15345;59.364;18.016;2023-09-19T02:03:16;15.20;;;8.93;;
28028;SDS011;15345;59.364;18.016;2023-09-19T02:04:35;19.70;;;9.38;;
28028;SDS011;15345;59.364;18.016;2023-09-19T02:05:54;12.85;;;9.43;;
28028;SDS011;15345;59.364;18.016;2023-09-19T02:07:13;11.65;;;8.85;;
28028;SDS011;15345;59.364;18.016;2023-09-19T02:08:33;16.90;;;9.73;;
28028;SDS011;15345;59.364;18.016;2023-09-19T02:09:53;14.38;;;9.15;;
28028;SDS011;15345;59.364;18.016;2023-09-19T02:11:12;13.48;;;9.32;;
28028;SDS011;15345;59.364;18.016;2023-09-19T02:12:32;17.45;;;9.70;;
28028;SDS011;15345;59.364;18.016;2023-09-19T02:13:54;13.73;;;10.10;;
28028;SDS011;15345;59.364;18.016;2023-09-19T02:15:13;12.18;;;9.15;;
28028;SDS011;15345;59.364;18.016;2023-09-19T02:16:34;14.07;;;9.95;;
28028;SDS011;15345;59.364;18.016;2023-09-19T02:17:53;15.25;;;10.27;;
28028;SDS011;15345;59.364;18.016;2023-09-19T02:19:12;15.43;;;9.82;;
28028;SDS011;15345;59.364;18.016;2023-09-19T02:20:31;13.57;;;9.95;;
28028;SDS011;15345;59.364;18.016;2023-09-19T02:21:52;12.35;;;10.32;;
28028;SDS011;15345;59.364;18.016;2023-09-19T02:23:11;12.70;;;10.32;;
28028;SDS011;15345;59.364;18.016;2023-09-19T02:24:31;19.55;;;10.55;;
28028;SDS011;15345;59.364;18.016;2023-09-19T02:25:53;12.52;;;10.23;;
28028;SDS011;15345;59.364;18.016;2023-09-19T02:27:12;19.13;;;11.07;;
28028;SDS011;15345;59.364;18.016;2023-09-19T02:28:33;15.10;;;11.05;;
28028;SDS011;15345;59.364;18.016;2023-09-19T02:29:53;11.65;;;10.43;;
28028;SDS011;15345;59.364;18.016;2023-09-19T02:31:12;15.45;;;11.00;;
28028;SDS011;15345;59.364;18.016;2023-09-19T02:32:31;18.27;;;10.55;;
28028;SDS011;15345;59.364;18.016;2023-09-19T02:33:54;15.50;;;11.07;;
28028;SDS011;15345;59.364;18.016;2023-09-19T02:35:13;16.70;;;11.45;;
28028;SDS011;15345;59.364;18.016;2023-09-19T02:36:33;18.92;;;11.23;;
28028;SDS011;15345;59.364;18.016;2023-09-19T02:37:52;14.70;;;11.48;;
28028;SDS011;15345;59.364;18.016;2023-09-19T02:39:11;20.73;;;11.45;;
28028;SDS011;15345;59.364;18.016;2023-09-19T02:40:30;17.48;;;12.05;;
28028;SDS011;15345;59.364;18.016;2023-09-19T02:41:49;15.30;;;11.45;;
28028;SDS011;15345;59.364;18.016;2023-09-19T02:43:08;16.48;;;11.48;;
28028;SDS011;15345;59.364;18.016;2023-09-19T02:44:27;18.42;;;11.68;;
28028;SDS011;15345;59.364;18.016;2023-09-19T02:45:46;15.65;;;11.60;;
28028;SDS011;15345;59.364;18.016;2023-09-19T02:47:08;20.25;;;11.98;;
28028;SDS011;15345;59.364;18.016;2023-09-19T02:48:28;17.70;;;11.40;;
28028;SDS011;15345;59.364;18.016;2023-09-19T02:49:48;21.98;;;12.15;;
28028;SDS011;15345;59.364;18.016;2023-09-19T02:51:07;17.75;;;12.95;;
28028;SDS011;15345;59.364;18.016;2023-09-19T02:52:26;19.35;;;13.35;;
28028;SDS011;15345;59.364;18.016;2023-09-19T02:53:45;18.38;;;12.13;;
28028;SDS011;15345;59.364;18.016;2023-09-19T02:55:06;17.35;;;12.20;;
28028;SDS011;15345;59.364;18.016;2023-09-19T02:56:27;16.02;;;11.40;;
28028;SDS011;15345;59.364;18.016;2023-09-19T02:57:47;16.70;;;12.82;;
28028;SDS011;15345;59.364;18.016;2023-09-19T02:59:06;17.67;;;12.20;;
28028;SDS011;15345;59.364;18.016;2023-09-19T03:00:25;20.20;;;12.65;;
28028;SDS011;15345;59.364;18.016;2023-09-19T03:01:45;18.45;;;12.18;;
28028;SDS011;15345;59.364;18.016;2023-09-19T03:03:06;17.55;;;13.45;;
28028;SDS011;15345;59.364;18.016;2023-09-19T03:04:26;16.85;;;12.63;;
28028;SDS011;15345;59.364;18.016;2023-09-19T03:05:46;16.05;;;13.02;;
28028;SDS011;15345;59.364;18.016;2023-09-19T03:07:05;20.35;;;13.77;;
28028;SDS011;15345;59.364;18.016;2023-09-19T03:08:24;20.95;;;12.43;;
28028;SDS011;15345;59.364;18.016;2023-09-19T03:09:43;19.08;;;12.70;;
28028;SDS011;15345;59.364;18.016;2023-09-19T03:11:03;18.75;;;13.18;;
28028;SDS011;15345;59.364;18.016;2023-09-19T03:12:22;20.38;;;12.75;;
28028;SDS011;15345;59.364;18.016;2023-09-19T03:13:41;18.80;;;13.32;;
28028;SDS011;15345;59.364;18.016;2023-09-19T03:15:01;22.15;;;13.05;;
28028;SDS011;15345;59.364;18.016;2023-09-19T03:16:20;21.13;;;14.13;;
28028;SDS011;15345;59.364;18.016;2023-09-19T03:17:42;21.27;;;14.07;;
28028;SDS011;15345;59.364;18.016;2023-09-19T03:19:02;20.77;;;12.98;;
28028;SDS011;15345;59.364;18.016;2023-09-19T03:20:21;21.58;;;14.10;;
28028;SDS011;15345;59.364;18.016;2023-09-19T03:21:41;18.88;;;13.40;;
28028;SDS011;15345;59.364;18.016;2023-09-19T03:23:00;20.85;;;14.10;;
28028;SDS011;15345;59.364;18.016;2023-09-19T03:24:18;19.70;;;13.43;;
28028;SDS011;15345;59.364;18.016;2023-09-19T03:25:38;22.13;;;14.70;;
28028;SDS011;15345;59.364;18.016;2023-09-19T03:26:58;24.77;;;13.77;;
28028;SDS011;15345;59.364;18.016;2023-09-19T03:28:17;21.45;;;14.73;;
28028;SDS011;15345;59.364;18.016;2023-09-19T03:29:36;22.75;;;14.43;;
28028;SDS011;15345;59.364;18.016;2023-09-19T03:31:02;25.52;;;15.48;;
28028;SDS011;15345;59.364;18.016;2023-09-19T03:32:21;19.33;;;14.88;;
28028;SDS011;15345;59.364;18.016;2023-09-19T03:33:40;29.75;;;14.88;;
28028;SDS011;15345;59.364;18.016;2023-09-19T03:34:59;24.48;;;15.80;;
28028;SDS011;15345;59.364;18.016;2023-09-19T03:36:18;20.85;;;14.70;;
28028;SDS011;15345;59.364;18.016;2023-09-19T03:37:37;23.10;;;15.20;;
28028;SDS011;15345;59.364;18.016;2023-09-19T03:38:57;19.65;;;15.00;;
28028;SDS011;15345;59.364;18.016;2023-09-19T03:40:16;21.27;;;15.38;;
28028;SDS011;15345;59.364;18.016;2023-09-19T03:41:36;24.90;;;14.88;;
28028;SDS011;15345;59.364;18.016;2023-09-19T03:42:55;25.50;;;15.52;;
28028;SDS011;15345;59.364;18.016;2023-09-19T03:44:14;22.80;;;15.02;;
28028;SDS011;15345;59.364;18.016;2023-09-19T03:45:34;24.15;;;15.00;;
28028;SDS011;15345;59.364;18.016;2023-09-19T03:46:53;22.27;;;15.93;;
28028;SDS011;15345;59.364;18.016;2023-09-19T03:48:14;22.83;;;16.05;;
28028;SDS011;15345;59.364;18.016;2023-09-19T03:49:33;26.73;;;16.98;;
28028;SDS011;15345;59.364;18.016;2023-09-19T03:50:52;29.25;;;16.73;;
28028;SDS011;15345;59.364;18.016;2023-09-19T03:52:12;23.40;;;15.80;;
28028;SDS011;15345;59.364;18.016;2023-09-19T03:53:31;25.25;;;16.75;;
28028;SDS011;15345;59.364;18.016;2023-09-19T03:54:50;23.45;;;15.80;;
28028;SDS011;15345;59.364;18.016;2023-09-19T03:56:09;22.75;;;15.85;;
28028;SDS011;15345;59.364;18.016;2023-09-19T03:57:28;22.13;;;15.80;;
28028;SDS011;15345;59.364;18.016;2023-09-19T03:58:46;24.55;;;16.48;;
28028;SDS011;15345;59.364;18.016;2023-09-19T04:00:06;21.40;;;16.40;;
28028;SDS011;15345;59.364;18.016;2023-09-19T04:01:30;20.98;;;16.17;;
28028;SDS011;15345;59.364;18.016;2023-09-19T04:02:51;21.13;;;15.80;;
28028;SDS011;15345;59.364;18.016;2023-09-19T04:04:10;23.30;;;15.93;;
28028;SDS011;15345;59.364;18.016;2023-09-19T04:05:31;23.77;;;16.25;;
28028;SDS011;15345;59.364;18.016;2023-09-19T04:06:51;26.58;;;16.83;;
28028;SDS011;15345;59.364;18.016;2023-09-19T04:08:10;18.38;;;15.43;;
28028;SDS011;15345;59.364;18.016;2023-09-19T04:09:29;23.23;;;16.58;;
28028;SDS011;15345;59.364;18.016;2023-09-19T04:10:48;22.23;;;15.73;;
28028;SDS011;15345;59.364;18.016;2023-09-19T04:12:08;24.40;;;16.25;;
28028;SDS011;15345;59.364;18.016;2023-09-19T04:13:29;23.20;;;16.02;;
28028;SDS011;15345;59.364;18.016;2023-09-19T04:14:48;25.42;;;15.70;;
28028;SDS011;15345;59.364;18.016;2023-09-19T04:16:08;25.67;;;15.82;;
28028;SDS011;15345;59.364;18.016;2023-09-19T04:17:27;21.67;;;16.00;;
28028;SDS011;15345;59.364;18.016;2023-09-19T04:18:46;24.50;;;16.42;;
28028;SDS011;15345;59.364;18.016;2023-09-19T04:20:06;29.38;;;17.13;;
28028;SDS011;15345;59.364;18.016;2023-09-19T04:21:26;28.52;;;16.60;;
28028;SDS011;15345;59.364;18.016;2023-09-19T04:22:46;23.80;;;16.85;;
28028;SDS011;15345;59.364;18.016;2023-09-19T04:24:06;28.85;;;16.80;;
28028;SDS011;15345;59.364;18.016;2023-09-19T04:25:25;26.42;;;16.40;;
28028;SDS011;15345;59.364;18.016;2023-09-19T04:26:46;23.13;;;16.40;;
28028;SDS011;15345;59.364;18.016;2023-09-19T04:28:06;24.50;;;15.75;;
28028;SDS011;15345;59.364;18.016;2023-09-19T04:29:24;28.80;;;16.98;;
28028;SDS011;15345;59.364;18.016;2023-09-19T04:30:45;22.13;;;16.45;;
28028;SDS011;15345;59.364;18.016;2023-09-19T04:32:04;26.10;;;16.90;;
28028;SDS011;15345;59.364;18.016;2023-09-19T04:33:24;26.50;;;17.02;;
28028;SDS011;15345;59.364;18.016;2023-09-19T04:34:44;27.02;;;17.55;;
28028;SDS011;15345;59.364;18.016;2023-09-19T04:36:03;21.83;;;15.93;;
28028;SDS011;15345;59.364;18.016;2023-09-19T04:37:24;25.70;;;16.98;;
28028;SDS011;15345;59.364;18.016;2023-09-19T04:38:43;27.58;;;17.05;;
28028;SDS011;15345;59.364;18.016;2023-09-19T04:40:02;24.77;;;17.20;;
28028;SDS011;15345;59.364;18.016;2023-09-19T04:41:24;26.25;;;17.17;;
28028;SDS011;15345;59.364;18.016;2023-09-19T04:42:43;25.73;;;16.65;;
28028;SDS011;15345;59.364;18.016;2023-09-19T04:44:02;32.78;;;17.95;;
28028;SDS011;15345;59.364;18.016;2023-09-19T04:45:22;26.73;;;17.88;;
28028;SDS011;15345;59.364;18.016;2023-09-19T04:46:41;26.40;;;17.35;;
28028;SDS011;15345;59.364;18.016;2023-09-19T04:48:00;29.02;;;17.85;;
28028;SDS011;15345;59.364;18.016;2023-09-19T04:49:19;24.05;;;17.30;;
28028;SDS011;15345;59.364;18.016;2023-09-19T04:50:38;26.55;;;17.85;;
28028;SDS011;15345;59.364;18.016;2023-09-19T04:51:57;22.50;;;17.95;;
28028;SDS011;15345;59.364;18.016;2023-09-19T04:53:17;27.23;;;18.38;;
28028;SDS011;15345;59.364;18.016;2023-09-19T04:54:36;27.83;;;17.75;;
28028;SDS011;15345;59.364;18.016;2023-09-19T04:55:55;26.63;;;17.90;;
28028;SDS011;15345;59.364;18.016;2023-09-19T04:57:14;28.23;;;18.95;;
28028;SDS011;15345;59.364;18.016;2023-09-19T04:58:33;22.25;;;18.17;;
28028;SDS011;15345;59.364;18.016;2023-09-19T04:59:52;27.45;;;18.35;;
28028;SDS011;15345;59.364;18.016;2023-09-19T05:01:12;27.33;;;18.67;;
28028;SDS011;15345;59.364;18.016;2023-09-19T05:02:33;23.20;;;17.83;;
28028;SDS011;15345;59.364;18.016;2023-09-19T05:03:53;25.83;;;18.58;;
28028;SDS011;15345;59.364;18.016;2023-09-19T05:05:12;23.33;;;17.83;;
28028;SDS011;15345;59.364;18.016;2023-09-19T05:07:54;25.27;;;18.40;;
28028;SDS011;15345;59.364;18.016;2023-09-19T05:09:14;27.90;;;18.20;;
28028;SDS011;15345;59.364;18.016;2023-09-19T05:10:34;26.52;;;18.08;;
28028;SDS011;15345;59.364;18.016;2023-09-19T05:11:56;26.80;;;18.58;;
28028;SDS011;15345;59.364;18.016;2023-09-19T05:13:15;23.60;;;17.95;;
28028;SDS011;15345;59.364;18.016;2023-09-19T05:14:34;25.45;;;18.23;;
28028;SDS011;15345;59.364;18.016;2023-09-19T05:15:53;30.63;;;20.30;;
28028;SDS011;15345;59.364;18.016;2023-09-19T05:17:13;26.30;;;18.95;;
28028;SDS011;15345;59.364;18.016;2023-09-19T05:18:32;23.67;;;18.48;;
28028;SDS011;15345;59.364;18.016;2023-09-19T05:19:51;27.38;;;19.83;;
28028;SDS011;15345;59.364;18.016;2023-09-19T05:21:10;25.83;;;18.75;;
28028;SDS011;15345;59.364;18.016;2023-09-19T05:22:30;24.67;;;18.02;;
28028;SDS011;15345;59.364;18.016;2023-09-19T05:23:51;26.40;;;19.25;;
28028;SDS011;15345;59.364;18.016;2023-09-19T05:25:11;26.20;;;18.02;;
28028;SDS011;15345;59.364;18.016;2023-09-19T05:26:34;24.73;;;17.80;;
28028;SDS011;15345;59.364;18.016;2023-09-19T05:27:53;29.88;;;18.30;;
28028;SDS011;15345;59.364;18.016;2023-09-19T05:29:12;25.98;;;18.30;;
28028;SDS011;15345;59.364;18.016;2023-09-19T05:30:32;25.85;;;17.70;;
28028;SDS011;15345;59.364;18.016;2023-09-19T05:31:51;22.15;;;17.30;;
28028;SDS011;15345;59.364;18.016;2023-09-19T05:33:10;23.85;;;18.52;;
28028;SDS011;15345;59.364;18.016;2023-09-19T05:34:29;27.52;;;17.75;;
28028;SDS011;15345;59.364;18.016;2023-09-19T05:35:48;27.08;;;18.80;;
28028;SDS011;15345;59.364;18.016;2023-09-19T05:37:07;26.75;;;18.27;;
28028;SDS011;15345;59.364;18.016;2023-09-19T05:38:27;24.83;;;18.00;;
28028;SDS011;15345;59.364;18.016;2023-09-19T05:39:46;26.02;;;17.75;;
28028;SDS011;15345;59.364;18.016;2023-09-19T05:41:05;23.98;;;18.30;;
28028;SDS011;15345;59.364;18.016;2023-09-19T05:42:25;23.23;;;17.50;;
28028;SDS011;15345;59.364;18.016;2023-09-19T05:43:44;23.65;;;17.83;;
28028;SDS011;15345;59.364;18.016;2023-09-19T05:45:03;22.13;;;18.13;;
28028;SDS011;15345;59.364;18.016;2023-09-19T05:46:24;27.80;;;17.92;;
28028;SDS011;15345;59.364;18.016;2023-09-19T05:47:48;25.67;;;17.73;;
28028;SDS011;15345;59.364;18.016;2023-09-19T05:49:09;25.85;;;16.98;;
28028;SDS011;15345;59.364;18.016;2023-09-19T05:50:27;25.75;;;17.65;;
28028;SDS011;15345;59.364;18.016;2023-09-19T05:51:46;26.58;;;18.63;;
28028;SDS011;15345;59.364;18.016;2023-09-19T05:53:05;25.05;;;17.77;;
28028;SDS011;15345;59.364;18.016;2023-09-19T05:54:25;24.10;;;17.73;;
28028;SDS011;15345;59.364;18.016;2023-09-19T05:55:44;22.80;;;17.85;;
28028;SDS011;15345;59.364;18.016;2023-09-19T05:57:03;23.38;;;17.38;;
28028;SDS011;15345;59.364;18.016;2023-09-19T05:58:21;28.83;;;17.58;;
28028;SDS011;15345;59.364;18.016;2023-09-19T05:59:40;22.15;;;17.95;;
28028;SDS011;15345;59.364;18.016;2023-09-19T06:01:01;23.35;;;17.75;;
28028;SDS011;15345;59.364;18.016;2023-09-19T06:02:20;26.45;;;17.13;;
28028;SDS011;15345;59.364;18.016;2023-09-19T06:03:39;24.23;;;17.90;;
28028;SDS011;15345;59.364;18.016;2023-09-19T06:04:58;24.10;;;18.30;;
28028;SDS011;15345;59.364;18.016;2023-09-19T06:06:18;25.02;;;17.65;;
28028;SDS011;15345;59.364;18.016;2023-09-19T06:07:37;24.98;;;17.65;;
28028;SDS011;15345;59.364;18.016;2023-09-19T06:08:56;22.80;;;18.30;;
28028;SDS011;15345;59.364;18.016;2023-09-19T06:10:19;24.08;;;17.77;;
28028;SDS011;15345;59.364;18.016;2023-09-19T06:11:41;27.20;;;18.05;;
28028;SDS011;15345;59.364;18.016;2023-09-19T06:13:01;27.80;;;17.98;;
28028;SDS011;15345;59.364;18.016;2023-09-19T06:14:23;20.95;;;17.63;;
28028;SDS011;15345;59.364;18.016;2023-09-19T06:15:42;21.55;;;18.00;;
28028;SDS011;15345;59.364;18.016;2023-09-19T06:17:02;26.70;;;17.15;;
28028;SDS011;15345;59.364;18.016;2023-09-19T06:18:21;24.88;;;18.48;;
28028;SDS011;15345;59.364;18.016;2023-09-19T06:19:39;21.88;;;17.27;;
28028;SDS011;15345;59.364;18.016;2023-09-19T06:21:00;22.25;;;18.13;;
28028;SDS011;15345;59.364;18.016;2023-09-19T06:22:19;22.58;;;16.40;;
28028;SDS011;15345;59.364;18.016;2023-09-19T06:23:38;21.02;;;17.45;;
28028;SDS011;15345;59.364;18.016;2023-09-19T06:24:57;22.40;;;17.15;;
28028;SDS011;15345;59.364;18.016;2023-09-19T06:26:16;22.92;;;17.92;;
28028;SDS011;15345;59.364;18.016;2023-09-19T06:27:36;20.60;;;16.95;;
28028;SDS011;15345;59.364;18.016;2023-09-19T06:28:55;24.98;;;17.50;;
28028;SDS011;15345;59.364;18.016;2023-09-19T06:30:14;26.95;;;18.08;;
28028;SDS011;15345;59.364;18.016;2023-09-19T06:31:33;23.80;;;18.20;;
28028;SDS011;15345;59.364;18.016;2023-09-19T06:32:58;25.15;;;18.38;;
28028;SDS011;15345;59.364;18.016;2023-09-19T06:34:18;25.42;;;17.98;;
28028;SDS011;15345;59.364;18.016;2023-09-19T06:35:37;25.42;;;18.98;;
28028;SDS011;15345;59.364;18.016;2023-09-19T06:36:56;22.42;;;17.92;;
28028;SDS011;15345;59.364;18.016;2023-09-19T06:38:15;23.02;;;17.70;;
28028;SDS011;15345;59.364;18.016;2023-09-19T06:39:34;21.88;;;17.92;;
28028;SDS011;15345;59.364;18.016;2023-09-19T06:40:53;23.70;;;18.05;;
28028;SDS011;15345;59.364;18.016;2023-09-19T06:42:12;21.35;;;17.85;;
28028;SDS011;15345;59.364;18.016;2023-09-19T06:43:32;26.67;;;18.08;;
28028;SDS011;15345;59.364;18.016;2023-09-19T06:44:52;23.20;;;17.95;;
28028;SDS011;15345;59.364;18.016;2023-09-19T06:46:11;22.95;;;18.23;;
28028;SDS011;15345;59.364;18.016;2023-09-19T06:47:31;20.38;;;17.50;;
28028;SDS011;15345;59.364;18.016;2023-09-19T06:48:50;28.10;;;17.98;;
28028;SDS011;15345;59.364;18.016;2023-09-19T06:50:11;21.38;;;17.95;;
28028;SDS011;15345;59.364;18.016;2023-09-19T06:51:33;21.95;;;18.48;;
28028;SDS011;15345;59.364;18.016;2023-09-19T06:52:53;27.33;;;18.13;;
28028;SDS011;15345;59.364;18.016;2023-09-19T06:54:13;23.65;;;17.17;;
28028;SDS011;15345;59.364;18.016;2023-09-19T06:55:32;29.60;;;18.17;;
28028;SDS011;15345;59.364;18.016;2023-09-19T06:56:51;30.10;;;17.88;;
28028;SDS011;15345;59.364;18.016;2023-09-19T06:58:10;28.05;;;18.25;;
28028;SDS011;15345;59.364;18.016;2023-09-19T06:59:29;23.45;;;18.23;;
28028;SDS011;15345;59.364;18.016;2023-09-19T07:00:48;28.38;;;19.10;;
28028;SDS011;15345;59.364;18.016;2023-09-19T07:02:09;22.00;;;17.77;;
28028;SDS011;15345;59.364;18.016;2023-09-19T07:03:28;27.05;;;17.67;;
28028;SDS011;15345;59.364;18.016;2023-09-19T07:04:47;22.98;;;18.17;;
28028;SDS011;15345;59.364;18.016;2023-09-19T07:06:06;25.23;;;18.27;;
28028;SDS011;15345;59.364;18.016;2023-09-19T07:07:27;23.77;;;17.33;;
28028;SDS011;15345;59.364;18.016;2023-09-19T07:08:46;20.92;;;17.15;;
28028;SDS011;15345;59.364;18.016;2023-09-19T07:10:05;27.10;;;18.80;;
28028;SDS011;15345;59.364;18.016;2023-09-19T07:11:25;26.02;;;17.58;;
28028;SDS011;15345;59.364;18.016;2023-09-19T07:12:43;21.30;;;17.92;;
28028;SDS011;15345;59.364;18.016;2023-09-19T07:14:02;20.25;;;18.08;;
28028;SDS011;15345;59.364;18.016;2023-09-19T07:15:24;22.95;;;18.48;;
28028;SDS011;15345;59.364;18.016;2023-09-19T07:16:43;26.50;;;18.42;;
28028;SDS011;15345;59.364;18.016;2023-09-19T07:18:04;22.48;;;17.00;;
28028;SDS011;15345;59.364;18.016;2023-09-19T07:19:23;19.63;;;17.30;;
28028;SDS011;15345;59.364;18.016;2023-09-19T07:20:42;25.55;;;17.83;;
28028;SDS011;15345;59.364;18.016;2023-09-19T07:22:07;22.98;;;17.17;;
28028;SDS011;15345;59.364;18.016;2023-09-19T07:23:26;24.58;;;16.98;;
28028;SDS011;15345;59.364;18.016;2023-09-19T07:24:45;17.55;;;15.65;;
28028;SDS011;15345;59.364;18.016;2023-09-19T07:26:05;21.42;;;15.18;;
28028;SDS011;15345;59.364;18.016;2023-09-19T07:27:24;19.30;;;15.52;;
28028;SDS011;15345;59.364;18.016;2023-09-19T07:28:44;18.13;;;15.23;;
28028;SDS011;15345;59.364;18.016;2023-09-19T07:30:03;19.52;;;14.63;;
28028;SDS011;15345;59.364;18.016;2023-09-19T07:31:22;20.65;;;14.93;;
28028;SDS011;15345;59.364;18.016;2023-09-19T07:32:41;16.35;;;14.55;;
28028;SDS011;15345;59.364;18.016;2023-09-19T07:34:00;18.52;;;13.48;;
28028;SDS011;15345;59.364;18.016;2023-09-19T07:35:19;16.65;;;13.88;;
28028;SDS011;15345;59.364;18.016;2023-09-19T07:36:38;14.95;;;13.60;;
28028;SDS011;15345;59.364;18.016;2023-09-19T07:37:59;19.15;;;14.85;;
28028;SDS011;15345;59.364;18.016;2023-09-19T07:39:20;15.38;;;13.85;;
28028;SDS011;15345;59.364;18.016;2023-09-19T07:40:39;16.50;;;13.82;;
28028;SDS011;15345;59.364;18.016;2023-09-19T07:41:58;15.85;;;14.35;;
28028;SDS011;15345;59.364;18.016;2023-09-19T07:43:17;17.17;;;14.88;;
28028;SDS011;15345;59.364;18.016;2023-09-19T07:44:36;17.98;;;14.80;;
28028;SDS011;15345;59.364;18.016;2023-09-19T07:45:56;16.50;;;14.50;;
28028;SDS011;15345;59.364;18.016;2023-09-19T07:47:15;16.90;;;15.20;;
28028;SDS011;15345;59.364;18.016;2023-09-19T07:48:35;16.60;;;14.90;;
28028;SDS011;15345;59.364;18.016;2023-09-19T07:49:54;17.65;;;15.00;;
28028;SDS011;15345;59.364;18.016;2023-09-19T07:51:14;20.13;;;14.40;;
28028;SDS011;15345;59.364;18.016;2023-09-19T07:52:34;16.17;;;14.50;;
28028;SDS011;15345;59.364;18.016;2023-09-19T07:53:53;15.70;;;14.05;;
28028;SDS011;15345;59.364;18.016;2023-09-19T07:55:13;15.57;;;13.93;;
28028;SDS011;15345;59.364;18.016;2023-09-19T07:56:35;16.35;;;14.27;;